Time;durP1;ratioP1;P1;durP2;ratioP2;P2;SDS_P1;SDS_P2;PMS_P1;PMS_P2;Temp;Humidity;BMP_temperature;BMP_pressure;BME280_temperature;BME280_humidity;BME280_pressure;Samples;Min_cycle;Max_cycle;Signal;HPM_P1;HPM_P2
2023/09/13 00:00:51;;;;;;;5.50;3.97;;;;;;;16.48;100.00;92979.06;2583202;22;20325;-84
2023/09/13 00:01:53;;;;;;;7.03;3.60;;;;;;;16.50;100.00;92979.34;2572392;22;20004;-86
2023/09/13 00:02:55;;;;;;;4.65;4.20;;;;;;;16.53;100.00;92975.72;2583489;22;20009;-86
2023/09/13 00:03:58;;;;;;;4.90;4.20;;;;;;;16.48;100.00;92977.09;2595437;22;20094;-85
2023/09/13 00:05:05;;;;;;;4.18;3.75;;;;;;;16.51;100.00;92957.31;2596276;22;20030;-86
2023/09/13 00:06:19;;;;;;;3.92;3.55;;;;;;;16.46;100.00;92960.63;2596912;22;20364;-87
2023/09/13 00:07:21;;;;;;;6.88;4.00;;;;;;;16.41;100.00;92966.63;2608534;22;20007;-86
2023/09/13 00:08:23;;;;;;;7.32;3.80;;;;;;;16.51;100.00;92954.59;2583222;22;20034;-85
2023/09/13 00:09:24;;;;;;;6.03;3.97;;;;;;;16.52;100.00;92953.41;2595448;22;20007;-85
2023/09/13 00:10:27;;;;;;;7.75;3.70;;;;;;;16.41;100.00;92947.75;2583692;22;20008;-85
2023/09/13 00:11:29;;;;;;;4.35;3.80;;;;;;;16.43;100.00;92952.69;2583482;22;20335;-85
2023/09/13 00:12:31;;;;;;;4.18;3.75;;;;;;;16.45;100.00;92955.69;2596166;22;20003;-84
2023/09/13 00:13:33;;;;;;;4.82;3.80;;;;;;;16.46;100.00;92954.47;2583213;22;20370;-85
2023/09/13 00:14:35;;;;;;;6.30;4.32;;;;;;;16.38;100.00;92951.38;2570734;22;20001;-87
2023/09/13 00:15:41;;;;;;;4.78;4.32;;;;;;;16.37;100.00;92957.94;2571368;22;19997;-87
2023/09/13 00:16:43;;;;;;;4.18;3.85;;;;;;;16.48;100.00;92952.81;2585198;22;20346;-86
2023/09/13 00:17:48;;;;;;;4.40;3.70;;;;;;;16.55;100.00;92949.03;2583855;22;20024;-86
2023/09/13 00:18:52;;;;;;;5.53;3.55;;;;;;;16.65;100.00;92941.66;2572511;22;20536;-86
2023/09/13 00:19:56;;;;;;;4.28;3.53;;;;;;;16.65;100.00;92958.59;2583688;22;20010;-86
2023/09/13 00:20:57;;;;;;;4.75;3.88;;;;;;;16.59;100.00;92947.66;2571332;22;19992;-85
2023/09/13 00:21:59;;;;;;;4.05;3.75;;;;;;;16.50;100.00;92952.34;2583044;22;20359;-88
2023/09/13 00:23:00;;;;;;;4.13;3.72;;;;;;;16.48;100.00;92952.06;2582748;22;20518;-87
2023/09/13 00:24:01;;;;;;;5.50;4.78;;;;;;;16.46;100.00;92949.06;2595573;22;20415;-86
2023/09/13 00:25:05;;;;;;;4.57;3.80;;;;;;;16.45;100.00;92953.72;2583517;22;20088;-85
2023/09/13 00:26:07;;;;;;;3.80;3.47;;;;;;;16.42;100.00;92943.88;2582393;22;20417;-86
2023/09/13 00:27:21;;;;;;;4.28;3.88;;;;;;;16.44;100.00;92948.78;2583643;22;20050;-86
2023/09/13 00:28:22;;;;;;;4.32;3.90;;;;;;;16.54;100.00;92950.97;2587629;22;20004;-87
2023/09/13 00:29:24;;;;;;;7.03;3.80;;;;;;;16.51;100.00;92945.78;2595261;22;20090;-86
2023/09/13 00:30:25;;;;;;;3.60;3.30;;;;;;;16.48;100.00;92946.69;2583065;22;20014;-87
2023/09/13 00:31:26;;;;;;;4.35;3.67;;;;;;;16.48;100.00;92947.41;2582282;22;20086;-86
2023/09/13 00:32:28;;;;;;;4.55;3.67;;;;;;;16.49;100.00;92953.56;2570494;22;20001;-85
2023/09/13 00:33:34;;;;;;;4.32;3.60;;;;;;;16.41;100.00;92958.53;2570431;22;20409;-87
2023/09/13 00:34:36;;;;;;;3.78;3.45;;;;;;;16.43;100.00;92956.13;2595188;22;20003;-87
2023/09/13 00:35:47;;;;;;;5.18;3.63;;;;;;;16.41;100.00;92960.47;2582870;22;20070;-86
2023/09/13 00:36:48;;;;;;;7.70;3.95;;;;;;;16.42;100.00;92959.28;2584815;22;20000;-86
2023/09/13 00:37:50;;;;;;;5.20;3.08;;;;;;;16.37;100.00;92963.34;2582568;23;20000;-85
2023/09/13 00:38:52;;;;;;;5.50;3.58;;;;;;;16.37;100.00;92952.56;2570955;22;20055;-88
2023/09/13 00:39:56;;;;;;;4.03;3.63;;;;;;;16.47;100.00;92955.97;2571679;22;20643;-87
2023/09/13 00:40:57;;;;;;;3.95;3.40;;;;;;;16.61;100.00;92955.31;2570871;22;20083;-86
2023/09/13 00:41:59;;;;;;;4.32;2.85;;;;;;;16.62;100.00;92952.13;2570238;22;20083;-87
2023/09/13 00:43:00;;;;;;;4.00;3.60;;;;;;;16.70;100.00;92954.50;2582624;22;20036;-84
2023/09/13 00:44:01;;;;;;;3.70;3.40;;;;;;;16.80;100.00;92956.72;2570312;22;20008;-87
2023/09/13 00:45:03;;;;;;;4.75;3.63;;;;;;;16.75;100.00;92954.66;2570220;22;20004;-84
2023/09/13 00:46:05;;;;;;;3.42;3.13;;;;;;;16.65;100.00;92957.84;2570073;22;20409;-85
2023/09/13 00:47:07;;;;;;;4.07;3.78;;;;;;;16.75;100.00;92956.59;2582842;22;20050;-84
2023/09/13 00:48:08;;;;;;;4.30;3.33;;;;;;;16.70;100.00;92957.94;2582736;22;20320;-85
2023/09/13 00:49:10;;;;;;;3.63;3.28;;;;;;;16.78;100.00;92956.44;2594916;22;20497;-87
2023/09/13 00:50:15;;;;;;;3.15;2.85;;;;;;;16.70;100.00;92957.22;2582632;22;20004;-85
2023/09/13 00:51:20;;;;;;;3.58;3.28;;;;;;;16.56;100.00;92951.28;2583436;22;20479;-86
2023/09/13 00:52:21;;;;;;;3.28;2.85;;;;;;;16.61;100.00;92947.94;2571479;22;20005;-87
2023/09/13 00:53:25;;;;;;;3.25;2.95;;;;;;;16.60;100.00;92951.84;2582603;22;20061;-86
2023/09/13 00:54:28;;;;;;;3.35;3.05;;;;;;;16.67;100.00;92956.16;2571238;22;20027;-85
2023/09/13 00:55:34;;;;;;;3.65;3.00;;;;;;;16.68;100.00;92956.91;2583592;22;20011;-84
2023/09/13 00:56:37;;;;;;;2.90;2.70;;;;;;;16.55;100.00;92947.09;2595916;22;19999;-85
2023/09/13 00:57:42;;;;;;;4.15;3.03;;;;;;;16.54;100.00;92953.66;2595088;22;20442;-84
2023/09/13 00:58:51;;;;;;;4.13;2.92;;;;;;;16.58;100.00;92959.66;2571660;22;20011;-85
2023/09/13 00:59:53;;;;;;;2.92;2.60;;;;;;;16.53;100.00;92952.19;2573319;22;20058;-85
2023/09/13 01:00:56;;;;;;;3.67;3.33;;;;;;;16.43;100.00;92950.75;2582943;22;20031;-86
2023/09/13 01:01:57;;;;;;;3.63;3.30;;;;;;;16.44;100.00;92957.63;2582262;22;19999;-86
2023/09/13 01:03:00;;;;;;;8.25;2.88;;;;;;;16.46;100.00;92963.31;2582529;22;20011;-85
2023/09/13 01:04:03;;;;;;;4.50;3.17;;;;;;;16.25;100.00;92965.06;2595682;22;20006;-86
2023/09/13 01:05:09;;;;;;;3.95;3.17;;;;;;;16.39;100.00;92971.00;2595448;22;20014;-86
2023/09/13 01:06:14;;;;;;;5.32;3.25;;;;;;;16.35;100.00;92969.22;2596570;22;20008;-87
2023/09/13 01:07:16;;;;;;;4.30;3.20;;;;;;;16.34;100.00;92973.13;2583490;22;20000;-86
2023/09/13 01:08:19;;;;;;;3.45;3.10;;;;;;;16.28;100.00;92976.88;2582786;22;20161;-87
2023/09/13 01:09:21;;;;;;;3.65;3.35;;;;;;;16.39;100.00;92979.09;2582834;22;20425;-86
2023/09/13 01:10:22;;;;;;;4.53;3.40;;;;;;;16.39;100.00;92979.09;2582987;22;20007;-87
2023/09/13 01:11:27;;;;;;;4.35;4.03;;;;;;;16.74;100.00;92974.00;2583267;22;20000;-86
2023/09/13 01:12:28;;;;;;;3.85;3.33;;;;;;;16.62;100.00;92976.41;2583583;22;20000;-86
2023/09/13 01:13:30;;;;;;;4.18;3.50;;;;;;;16.74;100.00;92987.50;2582238;22;20000;-86
2023/09/13 01:14:33;;;;;;;4.43;3.25;;;;;;;16.57;100.00;92982.44;2595118;22;20011;-87
2023/09/13 01:15:40;;;;;;;5.00;3.22;;;;;;;16.50;100.00;92985.47;2594848;22;20044;-84
2023/09/13 01:17:00;;;;;;;3.80;2.80;;;;;;;16.35;100.00;92988.09;2572478;22;20131;-85
2023/09/13 01:18:15;;;;;;;3.87;3.10;;;;;;;16.40;100.00;92988.69;2577507;22;20015;-86
2023/09/13 01:20:09;;;;;;;3.80;3.22;;;;;;;16.53;100.00;92994.63;2588671;22;20978;-85
2023/09/13 01:21:18;;;;;;;4.10;3.17;;;;;;;16.53;100.00;92981.13;2593310;22;20280;-85
2023/09/13 01:23:07;;;;;;;4.47;3.70;;;;;;;16.46;100.00;92981.44;2573099;22;20015;-85
2023/09/13 01:24:30;;;;;;;4.20;3.60;;;;;;;16.38;100.00;92983.75;2602267;22;20009;-85
2023/09/13 01:26:09;;;;;;;4.15;2.97;;;;;;;16.40;100.00;92980.59;2599935;22;20026;-87
2023/09/13 01:27:49;;;;;;;3.78;2.95;;;;;;;16.22;100.00;92986.78;2603049;22;20114;-84
2023/09/13 01:28:54;;;;;;;3.55;3.25;;;;;;;16.32;100.00;92989.00;2595145;22;20053;-85
2023/09/13 01:30:00;;;;;;;3.40;3.10;;;;;;;16.23;100.00;92988.28;2584345;22;20007;-85
2023/09/13 01:31:07;;;;;;;5.10;3.40;;;;;;;16.25;100.00;92983.19;2570222;23;20005;-86
2023/09/13 01:32:09;;;;;;;3.15;2.85;;;;;;;16.40;100.00;92985.97;2572612;22;20007;-87
2023/09/13 01:33:11;;;;;;;3.35;3.05;;;;;;;16.43;100.00;92975.03;2570227;22;20004;-85
2023/09/13 01:34:13;;;;;;;4.25;3.22;;;;;;;16.41;100.00;92972.03;2582776;22;20000;-86
2023/09/13 01:35:15;;;;;;;2.97;2.70;;;;;;;16.46;100.00;92971.44;2570519;22;20096;-85
2023/09/13 01:36:17;;;;;;;4.55;3.20;;;;;;;16.41;100.00;92971.28;2569902;22;20524;-84
2023/09/13 01:37:19;;;;;;;4.78;3.20;;;;;;;16.36;100.00;92975.34;2570650;22;20095;-84
2023/09/13 01:38:21;;;;;;;4.13;3.08;;;;;;;16.36;100.00;92968.00;2582145;22;20285;-84
2023/09/13 01:39:23;;;;;;;3.75;2.97;;;;;;;16.34;100.00;92965.03;2594826;22;20003;-84
2023/09/13 01:40:28;;;;;;;3.33;3.00;;;;;;;16.31;100.00;92967.88;2582353;22;20666;-85
2023/09/13 01:41:45;;;;;;;3.00;2.75;;;;;;;16.17;100.00;92965.84;2583810;22;20420;-85
2023/09/13 01:42:48;;;;;;;3.15;2.85;;;;;;;16.25;100.00;92953.53;2585507;22;20028;-85
2023/09/13 01:43:54;;;;;;;3.70;3.40;;;;;;;16.24;100.00;92949.31;2570549;22;20004;-84
2023/09/13 01:44:57;;;;;;;3.47;3.17;;;;;;;16.31;100.00;92952.44;2571808;22;20001;-85
2023/09/13 01:46:00;;;;;;;4.75;3.05;;;;;;;16.26;100.00;92949.63;2582868;22;20071;-86
2023/09/13 01:47:05;;;;;;;3.97;3.10;;;;;;;16.16;100.00;92940.81;2582758;22;20079;-85
2023/09/13 01:48:08;;;;;;;4.82;2.80;;;;;;;16.09;100.00;92941.88;2583275;22;20024;-84
2023/09/13 01:49:12;;;;;;;3.20;2.90;;;;;;;16.00;100.00;92944.59;2582166;22;20493;-85
2023/09/13 01:50:17;;;;;;;3.95;3.20;;;;;;;16.06;100.00;92945.47;2595591;22;20003;-83
2023/09/13 01:51:20;;;;;;;5.10;3.40;;;;;;;15.98;100.00;92943.56;2583068;22;20050;-84
2023/09/13 01:52:24;;;;;;;6.63;3.22;;;;;;;15.99;100.00;92947.78;2582635;22;20371;-85
2023/09/13 01:53:25;;;;;;;3.80;3.00;;;;;;;16.02;100.00;92955.69;2583285;22;20004;-86
2023/09/13 01:54:27;;;;;;;3.25;2.95;;;;;;;16.10;100.00;92943.38;2594818;22;20000;-85
2023/09/13 01:55:35;;;;;;;3.40;3.10;;;;;;;16.11;100.00;92939.50;2594535;22;20011;-84
2023/09/13 01:56:40;;;;;;;4.22;3.30;;;;;;;16.13;100.00;92940.97;2596413;22;20082;-85
2023/09/13 01:57:44;;;;;;;3.10;2.90;;;;;;;16.17;100.00;92946.97;2583053;22;20000;-84
2023/09/13 01:58:46;;;;;;;3.65;3.13;;;;;;;16.21;100.00;92944.84;2581994;22;20439;-84
2023/09/13 01:59:48;;;;;;;3.05;2.70;;;;;;;16.30;100.00;92934.03;2582636;22;20423;-85
2023/09/13 02:00:50;;;;;;;2.90;2.70;;;;;;;16.24;100.00;92930.44;2582782;22;20091;-84
2023/09/13 02:01:54;;;;;;;3.28;2.67;;;;;;;16.33;100.00;92928.47;2594986;22;19999;-86
2023/09/13 02:02:56;;;;;;;4.38;4.03;;;;;;;16.50;100.00;92923.41;2582893;22;20010;-85
2023/09/13 02:04:00;;;;;;;3.45;2.90;;;;;;;16.43;100.00;92926.47;2594566;22;20088;-86
2023/09/13 02:05:01;;;;;;;3.17;2.85;;;;;;;16.32;100.00;92918.13;2595631;22;20094;-83
2023/09/13 02:06:03;;;;;;;3.80;2.97;;;;;;;16.31;100.00;92914.66;2581937;22;20000;-85
2023/09/13 02:07:04;;;;;;;3.50;2.85;;;;;;;16.36;100.00;92918.69;2569923;23;20127;-84
2023/09/13 02:08:12;;;;;;;3.17;2.80;;;;;;;16.39;100.00;92915.09;2582476;22;20004;-83
2023/09/13 02:09:13;;;;;;;3.45;2.90;;;;;;;16.29;100.00;92919.03;2583387;22;20008;-85
2023/09/13 02:10:15;;;;;;;3.38;3.08;;;;;;;16.35;100.00;92919.91;2569445;23;20032;-84
2023/09/13 02:11:20;;;;;;;3.72;3.10;;;;;;;16.30;100.00;92921.28;2569742;22;20036;-85
2023/09/13 02:12:22;;;;;;;4.75;3.30;;;;;;;16.25;100.00;92911.13;2583218;22;20476;-84
2023/09/13 02:13:23;;;;;;;3.78;3.10;;;;;;;16.13;100.00;92927.50;2581891;22;20027;-85
2023/09/13 02:14:25;;;;;;;4.07;2.75;;;;;;;16.13;100.00;92928.25;2569930;22;20543;-84
2023/09/13 02:15:29;;;;;;;4.38;3.58;;;;;;;16.00;100.00;92939.22;2569761;22;20083;-85
2023/09/13 02:16:30;;;;;;;5.40;3.03;;;;;;;16.08;100.00;92940.38;2570680;22;20068;-84
2023/09/13 02:17:41;;;;;;;4.18;3.47;;;;;;;16.09;100.00;92941.88;2571145;22;20001;-85
2023/09/13 02:18:43;;;;;;;6.40;3.42;;;;;;;16.03;100.00;92945.66;2572473;22;20114;-85
2023/09/13 02:19:49;;;;;;;3.75;3.45;;;;;;;15.94;100.00;92951.09;2582340;22;20028;-85
2023/09/13 02:20:54;;;;;;;4.53;3.15;;;;;;;15.85;100.00;92946.47;2594724;22;20011;-85
2023/09/13 02:21:56;;;;;;;4.45;3.33;;;;;;;15.89;100.00;92952.41;2595601;22;20003;-85
2023/09/13 02:22:58;;;;;;;5.63;3.35;;;;;;;15.79;100.00;92950.94;2582063;22;20004;-85
2023/09/13 02:24:03;;;;;;;5.47;3.40;;;;;;;15.89;100.00;92949.72;2582671;22;20005;-84
2023/09/13 02:25:05;;;;;;;3.92;3.25;;;;;;;15.71;100.00;92950.50;2583012;22;20457;-84
2023/09/13 02:26:07;;;;;;;3.53;3.22;;;;;;;15.77;100.00;92947.97;2582357;22;20090;-85
2023/09/13 02:27:10;;;;;;;3.05;2.85;;;;;;;15.57;100.00;92951.84;2570523;22;20005;-87
2023/09/13 02:28:13;;;;;;;3.17;2.88;;;;;;;15.67;100.00;92955.34;2581645;22;20386;-87
2023/09/13 02:29:22;;;;;;;3.42;3.22;;;;;;;15.69;100.00;92957.56;2594843;22;20004;-85
2023/09/13 02:30:26;;;;;;;4.72;3.30;;;;;;;15.60;100.00;92961.75;2583931;22;20032;-85
2023/09/13 02:31:29;;;;;;;3.50;3.20;;;;;;;15.80;100.00;92955.13;2570169;22;20039;-85
2023/09/13 02:32:31;;;;;;;3.83;2.92;;;;;;;15.71;100.00;92963.25;2570485;22;20079;-85
2023/09/13 02:33:33;;;;;;;3.10;2.88;;;;;;;15.53;100.00;92964.72;2582534;22;20032;-87
2023/09/13 02:34:37;;;;;;;3.20;2.90;;;;;;;15.48;100.00;92965.34;2594905;22;20050;-86
2023/09/13 02:35:47;;;;;;;3.40;3.10;;;;;;;15.62;100.00;92959.31;2582740;22;20091;-85
2023/09/13 02:36:48;;;;;;;;;;;;;;;15.67;100.00;92966.13;2584341;22;20032;-85
2023/09/13 02:37:51;;;;;;;3.55;2.90;;;;;;;15.55;100.00;92958.91;2594978;22;19926;-85
2023/09/13 02:38:59;;;;;;;4.85;3.25;;;;;;;15.65;100.00;92959.66;2607320;22;20003;-86
2023/09/13 02:40:05;;;;;;;3.33;3.03;;;;;;;15.61;100.00;92963.22;2596882;22;20004;-85
2023/09/13 02:41:07;;;;;;;3.45;3.15;;;;;;;15.69;100.00;92968.34;2594643;22;20744;-84
2023/09/13 02:42:09;;;;;;;3.22;2.83;;;;;;;15.69;100.00;92960.25;2570132;22;20005;-85
2023/09/13 02:43:13;;;;;;;3.92;2.95;;;;;;;15.71;100.00;92961.28;2570059;22;20015;-85
2023/09/13 02:44:15;;;;;;;3.35;3.05;;;;;;;15.75;100.00;92956.50;2571156;22;20100;-86
2023/09/13 02:45:16;;;;;;;3.53;3.00;;;;;;;15.69;100.00;92957.56;2569868;22;20004;-85
2023/09/13 02:46:18;;;;;;;3.38;2.63;;;;;;;15.69;100.00;92960.25;2569441;22;20017;-86
2023/09/13 02:47:20;;;;;;;4.55;2.83;;;;;;;15.51;100.00;92966.41;2594526;22;20374;-85
2023/09/13 02:48:21;;;;;;;3.95;2.90;;;;;;;15.42;100.00;92967.16;2582014;22;20095;-86
2023/09/13 02:49:25;;;;;;;3.42;3.00;;;;;;;15.42;100.00;92969.09;2595018;22;20372;-84
2023/09/13 02:50:29;;;;;;;3.78;3.08;;;;;;;15.43;100.00;92959.81;2595310;22;19999;-86
2023/09/13 02:51:30;;;;;;;3.97;2.70;;;;;;;15.47;100.00;92963.09;2594552;22;20003;-85
2023/09/13 02:52:36;;;;;;;3.30;3.00;;;;;;;15.46;100.00;92965.06;2582141;22;20007;-85
2023/09/13 02:53:37;;;;;;;4.55;3.00;;;;;;;15.47;100.00;92955.03;2571366;22;20103;-86
2023/09/13 02:54:44;;;;;;;3.20;3.00;;;;;;;15.46;100.00;92962.34;2582279;22;20008;-85
2023/09/13 02:55:45;;;;;;;3.15;2.90;;;;;;;15.52;100.00;92963.25;2582837;22;20008;-84
2023/09/13 02:56:58;;;;;;;2.92;2.63;;;;;;;15.44;100.00;92964.00;2569649;22;20008;-86
2023/09/13 02:58:00;;;;;;;7.25;3.10;;;;;;;15.49;100.00;92966.81;2594779;22;20006;-85
2023/09/13 02:59:49;;;;;;;3.70;3.17;;;;;;;15.51;100.00;92964.44;2569831;22;20013;-86
2023/09/13 03:00:57;;;;;;;3.28;2.97;;;;;;;15.49;100.00;92958.75;2602670;22;20014;-85
2023/09/13 03:01:58;;;;;;;2.88;2.67;;;;;;;15.50;100.00;92965.66;2583214;22;20020;-85
2023/09/13 03:03:04;;;;;;;5.20;3.20;;;;;;;15.41;100.00;92962.97;2569169;22;20004;-84
2023/09/13 03:04:09;;;;;;;3.65;3.35;;;;;;;15.46;100.00;92967.00;2571928;22;20092;-86
2023/09/13 03:05:11;;;;;;;3.28;3.08;;;;;;;15.56;100.00;92971.19;2584207;22;20070;-85
2023/09/13 03:06:13;;;;;;;3.50;3.17;;;;;;;15.61;100.00;92979.41;2582528;22;20012;-84
2023/09/13 03:07:14;;;;;;;3.40;3.10;;;;;;;15.59;100.00;92973.72;2569810;22;20015;-86
2023/09/13 03:08:16;;;;;;;3.20;2.90;;;;;;;15.62;100.00;92980.13;2569921;22;20009;-85
2023/09/13 03:09:20;;;;;;;3.20;2.90;;;;;;;15.62;100.00;92980.88;2570248;22;20004;-85
2023/09/13 03:10:24;;;;;;;3.22;3.03;;;;;;;15.67;100.00;92976.13;2571000;22;20032;-84
2023/09/13 03:11:25;;;;;;;3.00;2.80;;;;;;;15.71;100.00;92977.47;2570725;22;20010;-86
2023/09/13 03:12:26;;;;;;;3.50;3.20;;;;;;;15.76;100.00;92974.19;2582236;22;20000;-85
2023/09/13 03:13:31;;;;;;;3.50;3.20;;;;;;;15.79;100.00;92977.91;2582434;22;20070;-86
2023/09/13 03:14:35;;;;;;;4.15;3.33;;;;;;;15.88;100.00;92972.50;2583603;22;20030;-86
2023/09/13 03:15:39;;;;;;;3.08;2.85;;;;;;;15.91;100.00;92973.53;2596202;22;20031;-86
2023/09/13 03:16:41;;;;;;;3.70;3.40;;;;;;;15.89;100.00;92975.94;2594683;22;20742;-86
2023/09/13 03:17:42;;;;;;;4.10;3.30;;;;;;;15.94;100.00;92973.41;2582464;22;20726;-85
2023/09/13 03:18:45;;;;;;;3.47;3.17;;;;;;;16.00;100.00;92976.97;2569727;22;20078;-86
2023/09/13 03:19:47;;;;;;;5.32;3.30;;;;;;;15.98;100.00;92973.97;2570655;22;20004;-86
2023/09/13 03:20:49;;;;;;;5.80;3.15;;;;;;;15.91;100.00;92970.84;2581815;22;20412;-85
2023/09/13 03:21:50;;;;;;;4.40;3.00;;;;;;;15.90;100.00;92980.16;2569935;22;20012;-85
2023/09/13 03:22:55;;;;;;;4.38;3.17;;;;;;;16.03;100.00;92981.44;2582006;22;20498;-86
2023/09/13 03:23:56;;;;;;;3.40;2.92;;;;;;;16.00;100.00;92982.34;2582765;22;20000;-85
2023/09/13 03:24:58;;;;;;;5.35;2.92;;;;;;;15.89;100.00;92978.63;2567542;22;20012;-84
2023/09/13 03:26:02;;;;;;;3.45;3.15;;;;;;;15.94;100.00;92973.41;2569518;22;20009;-84
2023/09/13 03:27:04;;;;;;;4.72;3.65;;;;;;;15.88;100.00;92982.53;2571366;22;20066;-84
2023/09/13 03:28:05;;;;;;;3.60;3.05;;;;;;;15.92;100.00;92988.50;2570575;22;20426;-85
2023/09/13 03:29:07;;;;;;;3.65;3.35;;;;;;;15.88;100.00;92972.50;2570580;22;20324;-85
2023/09/13 03:30:09;;;;;;;3.72;3.33;;;;;;;15.84;100.00;92975.34;2583062;22;20008;-86
2023/09/13 03:31:19;;;;;;;3.35;3.05;;;;;;;15.72;100.00;92972.84;2573432;22;20080;-85
2023/09/13 03:32:21;;;;;;;3.60;3.28;;;;;;;15.84;100.00;92977.28;2572504;22;20452;-84
2023/09/13 03:33:22;;;;;;;3.30;2.97;;;;;;;15.87;100.00;92976.41;2570705;22;20009;-84
2023/09/13 03:34:23;;;;;;;3.88;3.38;;;;;;;15.92;100.00;92978.47;2595442;22;20007;-85
2023/09/13 03:35:25;;;;;;;3.35;2.97;;;;;;;15.88;100.00;92969.78;2595115;22;20086;-85
2023/09/13 03:36:30;;;;;;;4.53;3.28;;;;;;;15.78;100.00;92976.41;2582872;22;20004;-86
2023/09/13 03:37:33;;;;;;;3.17;2.88;;;;;;;15.79;100.00;92978.66;2583504;22;20051;-86
2023/09/13 03:38:39;;;;;;;3.65;3.10;;;;;;;15.69;100.00;92976.44;2571150;22;20079;-85
2023/09/13 03:39:44;;;;;;;3.78;2.90;;;;;;;15.63;100.00;92976.28;2573718;22;20005;-84
2023/09/13 03:40:50;;;;;;;5.95;3.60;;;;;;;15.45;100.00;92984.34;2583048;22;20023;-85
2023/09/13 03:41:52;;;;;;;4.30;3.22;;;;;;;15.48;100.00;92976.13;2583782;22;20410;-85
2023/09/13 03:42:54;;;;;;;3.58;3.28;;;;;;;15.40;100.00;92977.59;2570711;22;20011;-84
2023/09/13 03:43:55;;;;;;;4.13;3.33;;;;;;;15.52;100.00;92970.56;2582653;22;20091;-84
2023/09/13 03:44:57;;;;;;;4.20;3.20;;;;;;;15.54;100.00;92968.16;2583104;22;20004;-84
2023/09/13 03:45:59;;;;;;;2.97;2.78;;;;;;;15.50;100.00;92973.72;2595374;22;20009;-85
2023/09/13 03:47:01;;;;;;;5.00;3.10;;;;;;;15.53;100.00;92970.13;2582998;22;20012;-85
2023/09/13 03:48:06;;;;;;;3.22;3.00;;;;;;;15.50;100.00;92971.03;2592963;22;20019;-85
2023/09/13 03:49:08;;;;;;;4.15;3.20;;;;;;;15.57;100.00;92972.66;2596584;22;20000;-84
2023/09/13 03:50:10;;;;;;;5.03;3.33;;;;;;;15.44;100.00;92977.47;2595516;22;20027;-85
2023/09/13 03:51:15;;;;;;;3.47;3.17;;;;;;;15.67;100.00;92981.50;2570139;23;20020;-85
2023/09/13 03:52:16;;;;;;;4.00;3.40;;;;;;;15.73;100.00;92977.03;2559453;23;20411;-84
2023/09/13 03:53:18;;;;;;;3.58;3.28;;;;;;;15.67;100.00;92976.88;2570711;22;20008;-84
2023/09/13 03:54:23;;;;;;;3.50;3.20;;;;;;;15.54;100.00;92979.72;2570368;23;20005;-86
2023/09/13 03:55:24;;;;;;;3.50;3.20;;;;;;;15.62;100.00;92974.75;2583359;22;20129;-84
2023/09/13 03:56:25;;;;;;;3.63;3.33;;;;;;;15.75;100.00;92978.06;2582221;23;20073;-86
2023/09/13 03:57:32;;;;;;;3.65;3.15;;;;;;;15.70;100.00;92970.59;2569720;23;20032;-85
2023/09/13 03:58:35;;;;;;;3.95;3.50;;;;;;;15.45;100.00;92974.34;2572454;22;20011;-86
2023/09/13 03:59:38;;;;;;;4.18;3.30;;;;;;;15.48;100.00;92978.06;2570317;23;20015;-85
2023/09/13 04:00:40;;;;;;;4.22;3.28;;;;;;;15.44;100.00;92978.22;2571255;22;20027;-86
2023/09/13 04:01:44;;;;;;;3.63;3.33;;;;;;;15.53;100.00;92975.50;2582973;22;20423;-85
2023/09/13 04:02:46;;;;;;;3.28;3.08;;;;;;;15.38;100.00;92976.59;2570301;23;20008;-86
2023/09/13 04:03:47;;;;;;;4.10;3.70;;;;;;;15.19;100.00;92975.81;2570499;22;20428;-86
2023/09/13 04:04:49;;;;;;;3.38;3.05;;;;;;;15.31;100.00;92977.63;2570636;23;20000;-86
2023/09/13 04:05:51;;;;;;;4.45;3.72;;;;;;;15.40;100.00;92974.91;2583139;22;20003;-85
2023/09/13 04:06:52;;;;;;;4.18;3.47;;;;;;;15.47;100.00;92969.25;2595371;22;20422;-84
2023/09/13 04:07:54;;;;;;;3.53;3.22;;;;;;;15.45;100.00;92970.88;2582854;23;20000;-85
2023/09/13 04:08:55;;;;;;;3.47;3.17;;;;;;;15.46;100.00;92967.00;2570755;22;20087;-85
2023/09/13 04:10:00;;;;;;;4.45;3.25;;;;;;;15.45;100.00;92960.09;2570483;23;20004;-87
2023/09/13 04:11:08;;;;;;;5.68;3.33;;;;;;;15.40;100.00;92968.78;2570753;22;20396;-85
2023/09/13 04:12:10;;;;;;;4.15;3.67;;;;;;;15.33;100.00;92967.16;2584331;22;20000;-84
2023/09/13 04:13:11;;;;;;;3.22;2.95;;;;;;;15.47;100.00;92961.16;2582184;23;20514;-86
2023/09/13 04:14:12;;;;;;;3.63;3.33;;;;;;;15.41;100.00;92972.97;2583008;22;20031;-85
2023/09/13 04:15:14;;;;;;;3.92;3.17;;;;;;;15.45;100.00;92963.56;2570184;23;20099;-86
2023/09/13 04:16:16;;;;;;;4.03;3.63;;;;;;;15.44;100.00;92966.69;2570634;22;20630;-85
2023/09/13 04:17:18;;;;;;;6.10;3.33;;;;;;;15.53;100.00;92962.03;2582577;22;20007;-84
2023/09/13 04:18:23;;;;;;;4.65;3.40;;;;;;;15.59;100.00;92962.94;2571860;22;20391;-85
2023/09/13 04:19:24;;;;;;;4.10;3.05;;;;;;;15.73;100.00;92967.00;2570979;23;20016;-86
2023/09/13 04:20:27;;;;;;;3.40;3.10;;;;;;;15.77;100.00;92967.59;2568721;23;20005;-84
2023/09/13 04:21:28;;;;;;;3.85;3.20;;;;;;;15.71;100.00;92966.69;2570249;23;20110;-84
2023/09/13 04:22:30;;;;;;;4.15;3.38;;;;;;;15.71;100.00;92968.63;2570461;22;20289;-84
2023/09/13 04:23:32;;;;;;;3.55;3.25;;;;;;;15.71;100.00;92965.94;2570041;23;20001;-86
2023/09/13 04:24:34;;;;;;;4.07;3.33;;;;;;;15.67;100.00;92963.41;2582488;22;20094;-84
2023/09/13 04:25:36;;;;;;;4.47;3.53;;;;;;;15.57;100.00;92965.31;2582843;22;20004;-84
2023/09/13 04:26:37;;;;;;;5.72;3.05;;;;;;;15.58;100.00;92963.38;2595079;22;20078;-87
2023/09/13 04:27:42;;;;;;;3.42;3.13;;;;;;;15.50;100.00;92960.25;2595040;22;20007;-85
2023/09/13 04:28:44;;;;;;;3.80;3.50;;;;;;;15.52;100.00;92962.50;2583170;22;20012;-86
2023/09/13 04:29:48;;;;;;;5.15;3.42;;;;;;;15.29;100.00;92966.56;2570627;23;20000;-85
2023/09/13 04:30:50;;;;;;;3.67;3.33;;;;;;;15.35;100.00;92954.72;2570154;23;20005;-85
2023/09/13 04:31:52;;;;;;;3.72;3.42;;;;;;;15.44;100.00;92958.59;2582628;22;20004;-84
2023/09/13 04:32:54;;;;;;;5.38;3.47;;;;;;;15.50;100.00;92960.25;2582545;23;20091;-84
2023/09/13 04:33:55;;;;;;;3.90;3.13;;;;;;;15.59;100.00;92959.50;2569977;23;20004;-86
2023/09/13 04:34:59;;;;;;;3.92;3.22;;;;;;;15.63;100.00;92952.03;2583428;22;20077;-85
2023/09/13 04:36:04;;;;;;;3.67;3.38;;;;;;;15.66;100.00;92955.78;2594984;22;20008;-86
2023/09/13 04:37:06;;;;;;;3.30;3.00;;;;;;;15.70;100.00;92957.09;2583105;22;20114;-85
2023/09/13 04:38:08;;;;;;;3.42;3.08;;;;;;;15.76;100.00;92962.63;2582524;22;20004;-85
2023/09/13 04:39:11;;;;;;;4.30;3.65;;;;;;;15.72;100.00;92960.13;2595029;22;20441;-85
2023/09/13 04:40:13;;;;;;;3.85;3.25;;;;;;;15.71;100.00;92955.16;2569562;23;20304;-86
2023/09/13 04:41:15;;;;;;;4.00;3.65;;;;;;;15.59;100.00;92956.81;2558049;23;20001;-84
2023/09/13 04:42:17;;;;;;;5.20;3.58;;;;;;;15.58;100.00;92958.75;2570484;22;20005;-85
2023/09/13 04:43:23;;;;;;;3.88;3.17;;;;;;;15.72;100.00;92962.06;2583178;22;20086;-85
2023/09/13 04:44:26;;;;;;;3.30;3.00;;;;;;;15.95;100.00;92961.41;2583170;22;20008;-85
2023/09/13 04:45:27;;;;;;;3.40;3.10;;;;;;;15.83;100.00;92965.03;2582719;23;20031;-84
2023/09/13 04:46:29;;;;;;;3.33;3.13;;;;;;;15.73;100.00;92966.25;2582349;22;20011;-84
2023/09/13 04:47:31;;;;;;;3.60;3.30;;;;;;;15.67;100.00;92958.03;2595128;22;20003;-85
2023/09/13 04:48:34;;;;;;;4.60;3.30;;;;;;;15.65;100.00;92957.72;2594963;22;20030;-84
2023/09/13 04:49:39;;;;;;;5.18;3.08;;;;;;;15.49;100.00;92966.09;2595497;22;20003;-86
2023/09/13 04:50:41;;;;;;;3.47;3.17;;;;;;;15.48;100.00;92975.38;2582930;22;20012;-85
2023/09/13 04:51:45;;;;;;;3.10;2.80;;;;;;;15.52;100.00;92967.88;2571030;22;20000;-84
2023/09/13 04:52:46;;;;;;;3.63;3.33;;;;;;;15.53;100.00;92972.81;2571147;22;20005;-86
2023/09/13 04:53:48;;;;;;;3.75;3.45;;;;;;;15.56;100.00;92971.19;2570080;22;19997;-87
2023/09/13 04:54:50;;;;;;;3.28;2.97;;;;;;;15.66;100.00;92974.63;2595150;22;20003;-85
2023/09/13 04:55:51;;;;;;;3.60;3.30;;;;;;;15.69;100.00;92977.19;2595093;22;20007;-85
2023/09/13 04:57:03;;;;;;;5.22;3.33;;;;;;;15.68;100.00;92967.59;2569755;22;20035;-85
2023/09/13 04:58:05;;;;;;;3.78;3.38;;;;;;;15.54;100.00;92970.88;2574506;22;20060;-84